This is the latest recevied weather packets stored in our database for station/object N1YZ. If no packets are shown the sender has not sent any weather packets the latest 10 day(s).
| Time | Temp. | Humidity | Pressure | Rain* | Wind** | Luminosity | Snow |
|---|---|---|---|---|---|---|---|
| 1788190904 | 30° C | 77% | 1040.4 hPa | 0 mm | - | 64 W/m² | - |
| 1788190603 | 29.44° C | 79% | 1040.2 hPa | 0 mm | - | 129 W/m² | - |
| 1788190300 | 30° C | 75% | 1040.2 hPa | 0 mm | - | 121 W/m² | - |
| 1788189995 | 30° C | 75% | 1040.3 hPa | 0 mm | - | 123 W/m² | - |
| 1788189691 | 30° C | 75% | 1040.2 hPa | 0 mm | - | 257 W/m² | - |
| 1788189391 | 30° C | 75% | 1040.4 hPa | 0 mm | - | 253 W/m² | - |
| 1788189085 | 30° C | 75% | 1040.5 hPa | 0 mm | - | 44 W/m² | - |
| 1788188780 | 30° C | 76% | 1040.3 hPa | 0 mm | - | 86 W/m² | - |
| 1788188476 | 29.44° C | 75% | 1040.3 hPa | 0 mm | - | 237 W/m² | - |
| 1788188170 | 30° C | 77% | 1040.5 hPa | 0 mm | - | 324 W/m² | - |
| 1788187866 | 30.56° C | 74% | 1040.3 hPa | 0 mm | - | 299 W/m² | - |
| 1788187562 | 30.56° C | 74% | 1040.3 hPa | 0 mm | - | 290 W/m² | - |
| 1788187257 | 30° C | 77% | 1040.3 hPa | 0 mm | - | 384 W/m² | - |
| 1788186951 | 30.56° C | 74% | 1040.3 hPa | 0 mm | - | 364 W/m² | - |
| 1788186647 | 30° C | 77% | 1040.5 hPa | 0 mm | - | 354 W/m² | - |
| 1788186344 | 29.44° C | 78% | 1040.3 hPa | 0 mm | - | 337 W/m² | - |
| 1788186044 | 28.89° C | 81% | 1040.4 hPa | 0 mm | - | 324 W/m² | - |
| 1788185743 | 27.78° C | 84% | 1040.3 hPa | 0 mm | - | 312 W/m² | - |
| 1788185438 | 27.22° C | 86% | 1040.5 hPa | 0 mm | - | 144 W/m² | - |
| 1788185138 | 26.67° C | 87% | 1040.5 hPa | 0 mm | - | 28 W/m² | - |
| 1788184838 | 26.67° C | 88% | 1040.6 hPa | 0 mm | - | 38 W/m² | - |
| 1788184535 | 26.11° C | 88% | 1040.6 hPa | 0 mm | - | 26 W/m² | - |
| 1788184231 | 26.11° C | 89% | 1040.4 hPa | 0 mm | - | 26 W/m² | - |
| 1788183927 | 26.11° C | 90% | 1040.6 hPa | 0 mm | - | 33 W/m² | - |
| 1788183621 | 25.56° C | 90% | 1040.6 hPa | 0 mm | - | 88 W/m² | - |
* Rain latest hour (hover to see other rain measurements)
** Current wind speed in m/s (hover to see current wind gust speed)